createdAt,value
2023-04-19T00:02:00.608Z,4.30
2023-04-19T00:04:30.405Z,4.20
2023-04-19T00:06:59.197Z,4.35
2023-04-19T00:09:27.833Z,4.50
2023-04-19T00:11:56.741Z,4.60
2023-04-19T00:14:27.608Z,4.70
2023-04-19T00:16:56.570Z,4.15
2023-04-19T00:19:28.974Z,4.43
2023-04-19T00:21:58.400Z,4.10
2023-04-19T00:24:27.807Z,4.20
2023-04-19T00:26:57.579Z,4.53
2023-04-19T00:29:28.600Z,4.40
2023-04-19T00:31:57.807Z,4.40
2023-04-19T00:34:26.724Z,4.65
2023-04-19T00:36:56.124Z,5.15
2023-04-19T00:39:27.936Z,4.78
2023-04-19T00:41:57.653Z,4.80
2023-04-19T00:44:29.081Z,5.45
2023-04-19T00:46:59.288Z,5.22
2023-04-19T00:49:29.493Z,4.82
2023-04-19T00:51:58.537Z,5.40
2023-04-19T00:54:28.079Z,4.90
2023-04-19T00:57:00.947Z,4.78
2023-04-19T00:59:37.245Z,4.97
2023-04-19T01:02:07.792Z,5.15
2023-04-19T01:04:36.753Z,5.03
2023-04-19T01:07:06.029Z,4.70
2023-04-19T01:09:35.087Z,5.07
2023-04-19T01:12:04.596Z,5.10
2023-04-19T01:14:35.009Z,4.75
2023-04-19T01:17:05.288Z,4.95
2023-04-19T01:19:34.991Z,5.25
2023-04-19T01:22:04.364Z,4.70
2023-04-19T01:24:37.656Z,5.13
2023-04-19T01:27:07.361Z,4.88
2023-04-19T01:29:36.709Z,5.32
2023-04-19T01:32:05.904Z,5.10
2023-04-19T01:34:34.589Z,4.82
2023-04-19T01:37:03.668Z,4.93
2023-04-19T01:39:32.514Z,5.05
2023-04-19T01:42:03.939Z,5.10
2023-04-19T01:44:33.045Z,5.20
2023-04-19T01:47:02.217Z,5.95
2023-04-19T01:49:31.254Z,5.30
2023-04-19T01:52:00.778Z,5.03
2023-04-19T01:54:29.787Z,5.20
2023-04-19T01:56:58.525Z,4.93
2023-04-19T01:59:43.891Z,4.78
2023-04-19T02:02:13.028Z,4.68
2023-04-19T02:04:42.088Z,5.13
2023-04-19T02:07:15.317Z,4.85
2023-04-19T02:09:44.276Z,5.15
2023-04-19T02:12:12.987Z,4.85
2023-04-19T02:14:41.879Z,4.90
2023-04-19T02:17:12.940Z,4.47
2023-04-19T02:20:21.048Z,4.95
2023-04-19T02:22:49.957Z,4.93
2023-04-19T02:25:19.604Z,5.00
2023-04-19T02:27:48.567Z,5.00
2023-04-19T02:30:17.772Z,4.95
2023-04-19T02:32:49.569Z,5.00
2023-04-19T02:35:18.246Z,5.30
2023-04-19T02:37:47.211Z,4.90
2023-04-19T02:40:16.262Z,5.43
2023-04-19T02:42:45.291Z,5.32
2023-04-19T02:45:14.324Z,5.05
2023-04-19T02:47:43.666Z,5.10
2023-04-19T02:50:15.157Z,5.15
2023-04-19T02:52:44.340Z,4.88
2023-04-19T02:55:13.121Z,4.93
2023-04-19T02:57:41.777Z,5.53
2023-04-19T03:00:11.607Z,5.50
2023-04-19T03:02:40.411Z,5.53
2023-04-19T03:05:09.801Z,5.60
2023-04-19T03:07:40.011Z,5.63
2023-04-19T03:10:11.093Z,5.20
2023-04-19T03:12:43.054Z,5.53
2023-04-19T03:15:13.056Z,5.88
2023-04-19T03:17:45.723Z,5.30
2023-04-19T03:20:24.802Z,5.60
2023-04-19T03:23:11.079Z,5.55
2023-04-19T03:29:02.901Z,5.57
2023-04-19T03:31:31.746Z,6.18
2023-04-19T03:34:00.436Z,6.15
2023-04-19T03:36:29.162Z,5.90
2023-04-19T03:38:59.700Z,5.72
2023-04-19T03:41:29.368Z,5.50
2023-04-19T03:44:04.272Z,5.80
2023-04-19T03:46:33.304Z,6.25
2023-04-19T03:49:02.653Z,6.35
2023-04-19T03:51:31.650Z,6.55
2023-04-19T03:54:02.976Z,6.32
2023-04-19T03:56:31.851Z,6.18
2023-04-19T03:59:00.739Z,5.93
2023-04-19T04:01:29.795Z,6.60
2023-04-19T04:04:00.105Z,6.22
2023-04-19T04:06:30.295Z,6.32
2023-04-19T04:09:00.224Z,6.78
2023-04-19T04:11:56.802Z,6.70
2023-04-19T04:40:23.197Z,6.18
2023-04-19T04:45:28.042Z,6.10
2023-04-19T04:47:33.845Z,6.15
2023-04-19T04:50:04.537Z,5.93
2023-04-19T04:52:59.345Z,6.30
2023-04-19T04:55:30.258Z,5.80
2023-04-19T04:58:23.513Z,6.18
2023-04-19T05:01:03.104Z,6.78
2023-04-19T05:03:35.351Z,6.57
2023-04-19T05:06:04.325Z,6.60
2023-04-19T05:08:33.734Z,6.53
2023-04-19T05:11:04.814Z,6.65
2023-04-19T05:13:56.968Z,7.68
2023-04-19T05:16:28.839Z,7.22
2023-04-19T05:19:07.938Z,7.38
2023-04-19T05:21:36.660Z,7.80
2023-04-19T05:24:10.206Z,8.02
2023-04-19T05:26:42.658Z,8.27
2023-04-19T05:29:12.016Z,8.23
2023-04-19T05:31:44.092Z,8.52
2023-04-19T05:34:13.055Z,8.55
2023-04-19T05:36:44.923Z,8.48
2023-04-19T05:39:24.905Z,8.05
2023-04-19T05:41:55.695Z,8.15
2023-04-19T05:44:52.770Z,7.75
2023-04-19T05:47:27.598Z,7.95
2023-04-19T05:50:15.190Z,7.95
2023-04-19T05:52:46.803Z,8.15
2023-04-19T05:55:15.772Z,8.05
2023-04-19T05:57:46.189Z,8.18
2023-04-19T06:00:16.220Z,7.88
2023-04-19T06:02:45.129Z,8.25
2023-04-19T06:05:23.231Z,8.73
2023-04-19T06:08:02.802Z,8.52
2023-04-19T06:10:48.925Z,8.13
2023-04-19T06:13:48.451Z,8.87
2023-04-19T06:16:23.471Z,8.57
2023-04-19T06:18:54.897Z,9.00
2023-04-19T06:21:24.264Z,8.60
2023-04-19T06:23:52.957Z,8.50
2023-04-19T06:26:24.803Z,8.40
2023-04-19T06:28:55.552Z,8.65
2023-04-19T06:31:26.962Z,8.73
2023-04-19T06:33:56.673Z,9.38
2023-04-19T06:36:33.972Z,8.90
2023-04-19T06:39:02.996Z,8.25
2023-04-19T06:41:31.609Z,7.97
2023-04-19T06:44:01.882Z,8.10
2023-04-19T06:46:30.862Z,7.85
2023-04-19T06:49:00.052Z,7.53
2023-04-19T06:51:29.380Z,8.15
2023-04-19T06:54:04.201Z,7.80
2023-04-19T06:56:48.726Z,7.93
2023-04-19T06:59:23.357Z,7.90
2023-04-19T07:01:58.741Z,7.40
2023-04-19T07:04:28.187Z,7.22
2023-04-19T07:07:01.055Z,7.40
2023-04-19T07:09:32.632Z,7.45
2023-04-19T07:12:01.846Z,7.28
2023-04-19T07:14:34.554Z,7.40
2023-04-19T07:17:06.692Z,6.57
2023-04-19T07:19:36.554Z,6.82
2023-04-19T07:22:08.635Z,6.30
2023-04-19T07:25:14.372Z,6.55
2023-04-19T07:27:45.624Z,6.82
2023-04-19T07:30:17.683Z,5.82
2023-04-19T07:32:51.821Z,5.90
2023-04-19T07:35:20.886Z,6.20
2023-04-19T07:37:49.802Z,6.00
2023-04-19T07:40:21.994Z,5.68
2023-04-19T07:42:51.389Z,5.68
2023-04-19T07:45:22.503Z,5.53
2023-04-19T07:47:51.276Z,5.57
2023-04-19T07:50:21.826Z,5.30
2023-04-19T07:52:51.165Z,5.68
2023-04-19T07:55:20.166Z,6.47
2023-04-19T07:57:49.310Z,5.15
2023-04-19T08:00:18.795Z,5.25
2023-04-19T08:02:50.577Z,6.65
2023-04-19T08:05:20.286Z,7.13
2023-04-19T08:07:49.652Z,7.32
2023-04-19T08:10:21.710Z,6.78
2023-04-19T08:18:02.052Z,6.95
2023-04-19T08:20:31.043Z,7.45
2023-04-19T08:23:14.097Z,6.78
2023-04-19T08:25:51.039Z,7.07
2023-04-19T08:28:27.443Z,6.80
2023-04-19T08:31:10.987Z,6.40
2023-04-19T08:33:42.781Z,6.60
2023-04-19T08:36:17.075Z,6.40
2023-04-19T08:39:01.891Z,5.90
2023-04-19T08:41:33.764Z,6.22
2023-04-19T08:44:04.125Z,5.45
2023-04-19T08:46:33.679Z,5.50
2023-04-19T08:49:13.150Z,6.20
2023-04-19T08:51:55.664Z,6.85
2023-04-19T08:54:50.510Z,7.50
2023-04-19T08:57:18.834Z,7.40
2023-04-19T08:59:59.557Z,7.63
2023-04-19T09:02:29.535Z,7.80
2023-04-19T09:05:08.662Z,6.93
2023-04-19T09:07:57.901Z,7.72
2023-04-19T09:10:44.307Z,7.50
2023-04-19T09:13:46.650Z,7.63
2023-04-19T09:16:55.741Z,7.30
2023-04-19T09:20:06.642Z,7.40
2023-04-19T09:23:08.034Z,7.68
2023-04-19T09:26:15.099Z,7.90
2023-04-19T09:29:29.217Z,8.23
2023-04-19T09:32:19.183Z,7.45
2023-04-19T09:35:04.084Z,8.50
2023-04-19T09:38:01.408Z,8.00
2023-04-19T09:40:31.026Z,8.35
2023-04-19T09:46:06.522Z,8.60
2023-04-19T09:48:45.420Z,8.60
2023-04-19T09:51:16.782Z,8.63
2023-04-19T09:53:57.798Z,9.00
2023-04-19T09:56:45.586Z,8.10
2023-04-19T09:59:20.818Z,8.68
2023-04-19T10:01:57.441Z,8.27
2023-04-19T10:04:38.455Z,7.97
2023-04-19T10:09:58.208Z,8.18
2023-04-19T10:15:11.333Z,7.93
2023-04-19T10:17:40.257Z,8.43
2023-04-19T10:20:14.057Z,8.55
2023-04-19T10:22:46.106Z,8.25
2023-04-19T10:25:16.380Z,9.25
2023-04-19T10:27:56.688Z,7.85
2023-04-19T10:30:29.282Z,6.72
2023-04-19T10:33:13.718Z,5.40
2023-04-19T10:36:14.671Z,5.15
2023-04-19T10:43:21.460Z,4.88
2023-04-19T10:45:51.786Z,4.30
2023-04-19T10:53:32.887Z,4.32
2023-04-19T10:56:03.908Z,4.40
2023-04-19T10:59:15.216Z,4.03
2023-04-19T11:01:47.777Z,4.13
2023-04-19T11:04:18.802Z,4.18
2023-04-19T11:07:04.857Z,4.18
2023-04-19T11:10:04.023Z,4.50
2023-04-19T11:12:33.539Z,4.47
2023-04-19T11:15:04.254Z,4.43
2023-04-19T11:17:33.321Z,4.70
2023-04-19T11:20:08.444Z,4.55
2023-04-19T11:22:42.776Z,5.00
2023-04-19T11:25:13.405Z,4.95
2023-04-19T11:27:43.105Z,5.65
2023-04-19T11:30:30.634Z,5.95
2023-04-19T11:32:59.987Z,5.60
2023-04-19T11:35:30.698Z,5.05
2023-04-19T11:38:01.984Z,5.25
2023-04-19T11:40:31.172Z,5.07
2023-04-19T11:43:00.887Z,5.10
2023-04-19T11:45:39.613Z,6.10
2023-04-19T11:48:15.065Z,5.47
2023-04-19T11:50:44.923Z,6.15
2023-04-19T11:53:40.318Z,6.30
2023-04-19T11:56:17.716Z,6.07
2023-04-19T11:58:59.363Z,6.03
2023-04-19T12:01:52.321Z,5.90
2023-04-19T12:04:29.168Z,6.15
2023-04-19T12:07:11.740Z,6.13
2023-04-19T12:09:41.256Z,6.40
2023-04-19T12:12:26.542Z,5.82
2023-04-19T12:14:58.785Z,5.95
2023-04-19T12:17:40.050Z,5.60
2023-04-19T12:23:11.334Z,5.75
2023-04-19T12:25:40.389Z,5.45
2023-04-19T12:28:19.577Z,4.55
2023-04-19T12:30:50.143Z,4.55
2023-04-19T12:33:21.674Z,4.78
2023-04-19T12:35:52.346Z,4.68
2023-04-19T12:38:22.040Z,4.60
2023-04-19T12:40:53.336Z,4.72
2023-04-19T12:43:22.316Z,4.80
2023-04-19T12:45:51.297Z,4.95
2023-04-19T12:48:26.380Z,4.57
2023-04-19T12:50:55.820Z,4.68
2023-04-19T12:53:25.528Z,4.55
2023-04-19T12:55:54.266Z,4.60
2023-04-19T12:58:23.256Z,4.32
2023-04-19T13:00:52.589Z,4.45
2023-04-19T13:03:21.744Z,5.18
2023-04-19T13:05:52.566Z,4.80
2023-04-19T13:08:41.077Z,4.88
2023-04-19T13:11:16.775Z,5.18
2023-04-19T13:13:46.105Z,4.93
2023-04-19T13:16:14.812Z,5.10
2023-04-19T13:18:43.532Z,5.05
2023-04-19T13:21:33.426Z,5.22
2023-04-19T13:24:04.474Z,4.95
2023-04-19T13:26:34.449Z,5.40
2023-04-19T13:29:03.815Z,5.60
2023-04-19T13:31:36.383Z,5.47
2023-04-19T13:34:05.549Z,6.20
2023-04-19T13:36:36.462Z,6.40
2023-04-19T13:39:07.628Z,7.00
2023-04-19T13:41:37.154Z,6.55
2023-04-19T13:44:05.908Z,6.30
2023-04-19T13:46:34.867Z,6.80
2023-04-19T13:49:23.059Z,6.45
2023-04-19T13:51:55.908Z,6.15
2023-04-19T13:54:29.963Z,4.90
2023-04-19T13:57:03.015Z,5.30
2023-04-19T13:59:34.172Z,5.13
2023-04-19T14:02:05.033Z,5.55
2023-04-19T14:04:34.008Z,4.80
2023-04-19T14:07:04.450Z,4.70
2023-04-19T14:09:33.957Z,4.90
2023-04-19T14:12:04.523Z,4.57
2023-04-19T14:14:33.440Z,3.95
2023-04-19T14:17:02.383Z,4.18
2023-04-19T14:19:31.140Z,4.40
2023-04-19T14:22:01.411Z,4.60
2023-04-19T14:24:32.029Z,4.80
2023-04-19T14:27:10.287Z,4.78
2023-04-19T14:29:40.333Z,4.97
2023-04-19T14:32:24.064Z,5.47
2023-04-19T14:34:55.408Z,4.78
2023-04-19T14:37:25.273Z,5.25
2023-04-19T14:39:55.456Z,4.90
2023-04-19T14:42:24.379Z,5.40
2023-04-19T14:44:55.862Z,5.15
2023-04-19T14:47:24.601Z,5.10
2023-04-19T14:49:54.699Z,5.10
2023-04-19T14:52:34.729Z,5.13
2023-04-19T14:55:05.546Z,5.10
2023-04-19T14:57:34.455Z,5.50
2023-04-19T15:00:04.058Z,5.63
2023-04-19T15:03:12.584Z,5.60
2023-04-19T15:05:42.014Z,5.40
2023-04-19T15:08:23.400Z,5.55
2023-04-19T15:11:00.591Z,5.30
2023-04-19T15:13:29.872Z,11.88
2023-04-19T15:16:03.226Z,7.25
2023-04-19T15:18:32.186Z,5.93
2023-04-19T15:21:01.031Z,10.40
2023-04-19T15:23:29.980Z,6.57
2023-04-19T15:26:00.285Z,4.97
2023-04-19T15:28:28.789Z,5.28
2023-04-19T15:31:01.942Z,5.55
2023-04-19T15:33:30.945Z,5.55
2023-04-19T15:35:59.993Z,5.40
2023-04-19T15:38:31.070Z,5.10
2023-04-19T15:41:02.196Z,4.85
2023-04-19T15:43:32.673Z,5.45
2023-04-19T15:46:01.593Z,5.90
2023-04-19T15:48:32.899Z,5.80
2023-04-19T15:51:01.989Z,5.55
2023-04-19T15:53:31.018Z,5.55
2023-04-19T15:56:01.564Z,5.60
2023-04-19T15:58:33.304Z,5.78
2023-04-19T16:01:01.801Z,5.45
2023-04-19T16:03:42.252Z,5.90
2023-04-19T16:06:13.865Z,5.90
2023-04-19T16:08:42.757Z,5.40
2023-04-19T16:11:14.032Z,5.47
2023-04-19T16:13:42.899Z,5.55
2023-04-19T16:16:11.680Z,5.75
2023-04-19T16:18:40.606Z,7.40
2023-04-19T16:21:10.692Z,6.47
2023-04-19T16:23:39.203Z,5.78
2023-04-19T16:26:08.322Z,5.68
2023-04-19T16:28:38.819Z,5.70
2023-04-19T16:31:08.006Z,5.80
2023-04-19T16:33:36.726Z,5.30
2023-04-19T16:36:06.204Z,5.32
2023-04-19T16:38:36.721Z,5.47
2023-04-19T16:41:06.161Z,5.45
2023-04-19T16:43:38.294Z,5.85
2023-04-19T16:46:08.357Z,6.00
2023-04-19T16:48:37.331Z,5.63
2023-04-19T16:51:06.041Z,5.65
2023-04-19T16:53:34.980Z,5.93
2023-04-19T16:56:03.842Z,6.07
2023-04-19T16:58:34.218Z,6.10
2023-04-19T17:01:10.306Z,6.00
2023-04-19T17:03:39.187Z,5.78
2023-04-19T17:06:08.367Z,5.45
2023-04-19T17:08:38.527Z,5.72
2023-04-19T17:11:08.870Z,7.00
2023-04-19T17:13:37.885Z,6.32
2023-04-19T17:16:09.720Z,6.60
2023-04-19T17:18:39.439Z,6.43
2023-04-19T17:21:08.540Z,6.03
2023-04-19T17:23:37.094Z,6.10
2023-04-19T17:26:08.238Z,5.80
2023-04-19T17:28:36.859Z,6.55
2023-04-19T17:31:05.662Z,6.57
2023-04-19T17:33:38.753Z,6.22
2023-04-19T17:36:08.081Z,6.07
2023-04-19T17:38:37.294Z,6.25
2023-04-19T17:41:08.674Z,6.15
2023-04-19T17:43:37.182Z,5.80
2023-04-19T17:46:06.420Z,6.30
2023-04-19T17:49:23.615Z,6.47
2023-04-19T17:51:56.237Z,5.85
2023-04-19T17:54:28.634Z,5.95
2023-04-19T17:56:59.506Z,4.88
2023-04-19T17:59:28.286Z,4.78
2023-04-19T18:02:27.177Z,4.40
2023-04-19T18:05:13.583Z,4.35
2023-04-19T18:07:44.245Z,3.95
2023-04-19T18:10:25.441Z,3.55
2023-04-19T18:12:54.273Z,3.67
2023-04-19T18:15:46.261Z,3.65
2023-04-19T18:18:37.470Z,3.72
2023-04-19T18:21:25.868Z,3.50
2023-04-19T18:23:56.816Z,3.28
2023-04-19T18:26:25.978Z,4.00
2023-04-19T18:28:56.642Z,3.80
2023-04-19T18:31:25.893Z,4.10
2023-04-19T18:34:36.056Z,4.03
2023-04-19T18:37:29.536Z,3.50
2023-04-19T18:40:01.283Z,3.20
2023-04-19T18:42:32.210Z,3.38
2023-04-19T18:45:01.191Z,3.40
2023-04-19T18:47:33.372Z,3.40
2023-04-19T18:50:05.185Z,3.38
2023-04-19T18:52:36.556Z,4.05
2023-04-19T18:55:08.347Z,3.38
2023-04-19T18:57:43.032Z,3.30
2023-04-19T19:00:13.243Z,3.33
2023-04-19T19:03:58.133Z,3.60
2023-04-19T19:21:07.390Z,3.22
2023-04-19T20:15:27.777Z,5.50
2023-04-19T20:18:11.415Z,5.13
2023-04-19T20:21:23.217Z,4.83
2023-04-19T20:24:34.979Z,5.25
2023-04-19T20:28:27.301Z,4.80
2023-04-19T20:44:13.713Z,4.82
2023-04-19T21:03:13.671Z,4.82
2023-04-19T21:05:47.238Z,4.82
2023-04-19T21:08:19.250Z,4.90
2023-04-19T21:10:48.746Z,5.25
2023-04-19T21:13:18.227Z,5.07
2023-04-19T21:15:47.507Z,4.90
2023-04-19T21:18:17.861Z,5.35
2023-04-19T21:20:46.664Z,5.20
2023-04-19T21:23:16.996Z,5.60
2023-04-19T21:25:45.897Z,5.32
2023-04-19T21:28:15.394Z,6.05
2023-04-19T21:30:44.024Z,5.80
2023-04-19T21:33:13.172Z,6.22
2023-04-19T21:35:43.048Z,6.10
2023-04-19T21:38:11.971Z,5.70
2023-04-19T21:40:47.164Z,5.82
2023-04-19T21:43:23.998Z,6.22
2023-04-19T21:46:20.968Z,6.22
2023-04-19T21:49:17.397Z,6.10
2023-04-19T21:51:52.670Z,6.28
2023-04-19T21:54:32.856Z,6.22
2023-04-19T21:57:02.868Z,6.15
2023-04-19T21:59:31.668Z,6.50
2023-04-19T22:02:00.479Z,6.10
2023-04-19T22:04:56.325Z,8.07
2023-04-19T22:07:31.162Z,7.82
2023-04-19T22:13:51.907Z,7.53
2023-04-19T22:16:40.576Z,7.50
2023-04-19T22:19:24.502Z,6.80
2023-04-19T22:22:02.841Z,7.22
2023-04-19T22:24:41.287Z,7.07
2023-04-19T22:27:44.762Z,6.18
2023-04-19T22:36:45.029Z,5.82
2023-04-19T22:39:16.114Z,5.85
2023-04-19T22:42:04.395Z,5.82
2023-04-19T22:44:33.531Z,6.32
2023-04-19T22:47:05.314Z,6.03
2023-04-19T22:49:38.615Z,5.68
2023-04-19T22:52:14.611Z,6.22
2023-04-19T22:54:44.646Z,5.90
2023-04-19T22:57:15.144Z,6.13
2023-04-19T22:59:43.678Z,6.00
2023-04-19T23:02:12.578Z,6.00
2023-04-19T23:04:44.837Z,6.43
2023-04-19T23:07:13.461Z,6.22
2023-04-19T23:09:42.214Z,5.80
2023-04-19T23:12:11.166Z,6.20
2023-04-19T23:14:42.012Z,7.07
2023-04-19T23:17:11.162Z,6.13
2023-04-19T23:19:39.588Z,6.53
2023-04-19T23:22:08.944Z,6.50
2023-04-19T23:24:39.371Z,6.65
2023-04-19T23:27:08.756Z,6.78
2023-04-19T23:29:37.482Z,6.85
2023-04-19T23:32:08.597Z,7.20
2023-04-19T23:34:37.277Z,7.28
2023-04-19T23:37:06.733Z,7.05
2023-04-19T23:39:35.305Z,6.88
2023-04-19T23:42:04.708Z,7.55
2023-04-19T23:44:33.231Z,7.10
2023-04-19T23:47:02.664Z,7.15
2023-04-19T23:49:33.344Z,7.43
2023-04-19T23:52:04.487Z,7.22
2023-04-19T23:54:33.554Z,7.35
2023-04-19T23:57:01.984Z,7.32
2023-04-19T23:59:32.905Z,7.63
